Time;durP1;ratioP1;P1;durP2;ratioP2;P2;SDS_P1;SDS_P2;PMS_P1;PMS_P2;Temp;Humidity;BMP_temperature;BMP_pressure;BME280_temperature;BME280_humidity;BME280_pressure;Samples;Min_cycle;Max_cycle;Signal;HPM_P1;HPM_P2
2023/07/12 00:01:13;;;;;;;2.47;1.50;;;19.50;99.90;;;;;;4995306;28;20741;-58
2023/07/12 00:03:40;;;;;;;1.93;1.40;;;19.30;99.90;;;;;;4992146;28;20237;-58
2023/07/12 00:06:17;;;;;;;3.87;1.50;;;19.40;99.90;;;;;;4989040;28;20239;-58
2023/07/12 00:08:44;;;;;;;3.00;1.60;;;19.10;99.90;;;;;;4989799;28;20284;-58
2023/07/12 00:11:22;;;;;;;3.77;1.70;;;19.20;99.90;;;;;;4988481;28;20198;-58
2023/07/12 00:13:52;;;;;;;3.50;2.10;;;18.90;99.90;;;;;;4985440;28;20232;-58
2023/07/12 00:16:28;;;;;;;2.97;1.83;;;19.00;99.90;;;;;;4986271;28;20225;-58
2023/07/12 00:18:56;;;;;;;4.37;2.17;;;19.00;99.90;;;;;;4994422;28;20961;-58
2023/07/12 00:21:26;;;;;;;3.23;1.60;;;19.00;99.90;;;;;;4987038;28;20595;-57
2023/07/12 00:23:55;;;;;;;3.57;1.93;;;19.20;99.90;;;;;;4987558;28;20309;-59
2023/07/12 00:26:27;;;;;;;4.13;2.20;;;19.20;99.90;;;;;;4985593;28;20709;-58
2023/07/12 00:28:55;;;;;;;2.73;1.70;;;19.00;99.90;;;;;;4992134;28;20217;-58
2023/07/12 00:31:22;;;;;;;4.23;2.03;;;19.00;99.90;;;;;;4987320;28;20190;-58
2023/07/12 00:33:49;;;;;;;6.20;1.83;;;19.00;99.90;;;;;;4991074;28;20271;-59
2023/07/12 00:36:20;;;;;;;4.20;1.60;;;19.10;99.90;;;;;;4989683;28;20284;-58
2023/07/12 00:38:48;;;;;;;3.93;1.90;;;19.10;99.90;;;;;;4989757;28;20210;-59
2023/07/12 00:41:41;;;;;;;3.03;1.70;;;19.00;99.90;;;;;;4991564;28;21726;-59
2023/07/12 00:44:13;;;;;;;2.40;1.53;;;19.00;99.90;;;;;;4989290;28;20222;-58
2023/07/12 00:46:49;;;;;;;3.43;1.90;;;19.00;99.90;;;;;;4994664;28;20206;-58
2023/07/12 00:49:16;;;;;;;3.43;2.20;;;18.80;99.90;;;;;;4997863;28;20726;-58
2023/07/12 00:52:15;;;;;;;5.13;1.60;;;18.70;99.90;;;;;;4993180;28;20544;-58
2023/07/12 00:54:54;;;;;;;4.63;1.23;;;18.70;99.90;;;;;;4986461;28;20288;-58
2023/07/12 00:57:23;;;;;;;7.40;1.37;;;18.60;99.90;;;;;;4987578;28;20309;-58
2023/07/12 01:00:00;;;;;;;5.10;1.70;;;18.40;99.90;;;;;;4990597;28;20206;-58
2023/07/12 01:02:27;;;;;;;4.10;1.30;;;18.40;99.90;;;;;;5005072;23;20753;-62
2023/07/12 01:04:59;;;;;;;4.50;2.13;;;18.40;99.90;;;;;;5002105;28;20189;-63
2023/07/12 01:07:29;;;;;;;5.47;1.57;;;18.40;99.90;;;;;;4997409;28;20219;-63
2023/07/12 01:09:57;;;;;;;5.20;1.30;;;18.30;99.90;;;;;;5001368;28;20217;-62
2023/07/12 01:12:24;;;;;;;5.90;1.90;;;18.40;99.90;;;;;;5016337;28;20209;-65
2023/07/12 01:14:51;;;;;;;6.30;1.73;;;18.30;99.90;;;;;;5000122;28;20640;-63
2023/07/12 01:17:21;;;;;;;5.53;1.80;;;18.40;99.90;;;;;;5000184;28;20201;-63
2023/07/12 01:19:48;;;;;;;5.23;1.70;;;18.30;99.90;;;;;;5002325;28;20236;-63
2023/07/12 01:22:15;;;;;;;3.23;1.80;;;18.10;99.90;;;;;;4999333;28;20200;-63
2023/07/12 01:24:42;;;;;;;6.30;2.27;;;18.00;99.90;;;;;;4998706;28;20556;-64
2023/07/12 01:27:15;;;;;;;7.53;2.60;;;18.10;99.90;;;;;;5001309;28;20296;-63
2023/07/12 01:29:42;;;;;;;6.53;1.97;;;18.20;99.90;;;;;;5000877;28;20201;-63
2023/07/12 01:32:09;;;;;;;8.33;2.13;;;18.30;99.90;;;;;;4997900;28;20211;-63
2023/07/12 01:34:36;;;;;;;4.57;1.90;;;18.00;99.90;;;;;;4998483;28;22274;-63
2023/07/12 01:37:05;;;;;;;6.07;1.87;;;17.90;99.90;;;;;;5002087;28;20244;-62
2023/07/12 01:39:35;;;;;;;4.67;1.70;;;17.80;99.90;;;;;;5000090;28;20579;-62
2023/07/12 01:42:02;;;;;;;3.73;1.80;;;18.00;99.90;;;;;;4998371;28;20238;-63
2023/07/12 01:44:29;;;;;;;4.27;1.90;;;18.00;99.90;;;;;;4998450;28;20240;-61
2023/07/12 01:46:56;;;;;;;7.17;2.20;;;18.00;99.90;;;;;;5000192;28;20198;-63
2023/07/12 01:49:23;;;;;;;7.63;2.97;;;18.00;99.90;;;;;;4997390;28;20266;-62
2023/07/12 01:51:50;;;;;;;5.40;1.83;;;17.90;99.90;;;;;;5001519;28;20209;-63
2023/07/12 01:54:17;;;;;;;6.70;2.10;;;18.00;99.90;;;;;;5000201;28;20577;-62
2023/07/12 01:56:44;;;;;;;4.37;1.70;;;18.20;99.90;;;;;;4993936;28;20209;-63
2023/07/12 01:59:10;;;;;;;7.03;1.90;;;18.20;99.90;;;;;;5001787;28;20216;-62
2023/07/12 02:01:37;;;;;;;5.37;1.80;;;18.00;99.90;;;;;;4998114;28;20217;-63
2023/07/12 02:04:04;;;;;;;6.50;1.97;;;18.00;99.90;;;;;;4994226;28;20229;-62
2023/07/12 02:06:31;;;;;;;6.33;1.93;;;18.10;99.90;;;;;;4993770;28;20667;-62
2023/07/12 02:08:58;;;;;;;7.80;2.20;;;18.10;99.90;;;;;;4996989;28;20196;-62
2023/07/12 02:11:25;;;;;;;6.87;2.10;;;18.30;99.90;;;;;;4996951;28;20597;-65
2023/07/12 02:13:52;;;;;;;5.03;2.17;;;18.10;99.90;;;;;;5000907;28;20216;-64
2023/07/12 02:16:19;;;;;;;4.67;1.90;;;17.90;99.90;;;;;;5002010;28;20242;-65
2023/07/12 02:18:46;;;;;;;6.90;1.97;;;18.00;99.90;;;;;;5003343;28;20249;-65
2023/07/12 02:21:13;;;;;;;7.67;2.27;;;17.90;99.90;;;;;;5004198;28;20291;-65
2023/07/12 02:23:40;;;;;;;7.57;2.17;;;17.90;99.90;;;;;;5002305;28;20362;-65
2023/07/12 02:26:06;;;;;;;5.13;2.10;;;17.70;99.90;;;;;;5001000;28;20204;-64
2023/07/12 02:28:33;;;;;;;4.27;2.10;;;17.60;99.90;;;;;;5002723;28;20208;-64
2023/07/12 02:31:20;;;;;;;6.30;2.07;;;17.70;99.90;;;;;;5003186;28;20291;-65
2023/07/12 02:33:49;;;;;;;6.17;2.20;;;18.00;99.90;;;;;;5003325;28;20624;-63
2023/07/12 02:36:16;;;;;;;6.53;2.33;;;17.90;99.90;;;;;;5003485;28;20675;-64
2023/07/12 02:38:43;;;;;;;7.37;2.83;;;17.80;99.90;;;;;;5004860;28;20216;-65
2023/07/12 02:41:10;;;;;;;6.40;2.30;;;17.60;99.90;;;;;;5002490;28;20212;-64
2023/07/12 02:43:37;;;;;;;4.83;2.20;;;17.60;99.90;;;;;;5002667;28;20298;-63
2023/07/12 02:46:04;;;;;;;5.97;2.60;;;17.40;99.90;;;;;;5005193;28;20675;-65
2023/07/12 02:48:32;;;;;;;6.47;3.30;;;17.50;99.90;;;;;;5000458;28;20205;-59
2023/07/12 02:50:58;;;;;;;3.80;3.20;;;17.50;99.90;;;;;;5001875;28;20200;-62
2023/07/12 02:53:28;;;;;;;6.97;3.40;;;17.40;99.90;;;;;;5001282;28;20859;-63
2023/07/12 02:55:55;;;;;;;5.03;3.70;;;17.30;99.90;;;;;;4997548;28;20208;-61
2023/07/12 02:58:22;;;;;;;6.20;3.00;;;17.20;99.90;;;;;;5002255;28;20209;-60
2023/07/12 03:00:54;;;;;;;6.47;3.27;;;17.20;99.90;;;;;;5002575;28;20317;-61
2023/07/12 03:03:21;;;;;;;7.23;3.90;;;17.20;99.90;;;;;;4999047;28;20242;-59
2023/07/12 03:05:48;;;;;;;5.63;3.47;;;17.10;99.90;;;;;;5003108;28;20200;-63
2023/07/12 03:08:15;;;;;;;6.53;3.73;;;17.30;99.90;;;;;;5002365;28;20204;-64
2023/07/12 03:10:42;;;;;;;5.73;3.23;;;17.20;99.90;;;;;;5003281;28;20204;-65
2023/07/12 03:13:09;;;;;;;7.00;3.40;;;17.30;99.90;;;;;;5001758;28;20216;-66
2023/07/12 03:15:39;;;;;;;7.57;3.80;;;17.30;99.90;;;;;;5003667;28;20211;-62
2023/07/12 03:18:06;;;;;;;5.50;3.37;;;17.00;99.90;;;;;;5002704;28;20214;-63
2023/07/12 03:20:33;;;;;;;5.20;3.20;;;17.00;99.90;;;;;;5002083;28;20249;-62
2023/07/12 03:23:00;;;;;;;12.80;3.73;;;16.90;99.90;;;;;;5001588;28;20212;-59
2023/07/12 03:25:27;;;;;;;7.67;3.77;;;16.90;99.90;;;;;;5014821;28;20671;-60
2023/07/12 03:27:54;;;;;;;5.77;3.47;;;16.90;99.90;;;;;;5000131;28;20218;-60
2023/07/12 03:30:20;;;;;;;7.77;4.87;;;16.80;99.90;;;;;;4999329;28;20211;-61
2023/07/12 03:32:47;;;;;;;7.03;3.83;;;17.00;99.90;;;;;;4998640;28;21937;-62
2023/07/12 03:35:14;;;;;;;7.90;4.47;;;17.00;99.90;;;;;;5002426;28;20300;-60
2023/07/12 03:37:41;;;;;;;9.67;4.73;;;16.90;99.90;;;;;;5000256;28;20212;-60
2023/07/12 03:40:08;;;;;;;6.87;5.27;;;17.00;99.90;;;;;;4999437;28;20254;-59
2023/07/12 03:42:35;;;;;;;11.27;5.70;;;16.90;99.90;;;;;;4997913;28;20221;-60
2023/07/12 03:45:02;;;;;;;8.50;5.67;;;16.80;99.90;;;;;;4993017;28;20219;-63
2023/07/12 03:47:29;;;;;;;6.93;5.00;;;16.80;99.90;;;;;;4999205;28;20200;-59
2023/07/12 03:49:56;;;;;;;8.63;6.53;;;16.80;99.90;;;;;;5002163;28;20256;-59
2023/07/12 03:52:23;;;;;;;11.60;6.83;;;16.80;99.90;;;;;;4998576;28;20609;-60
2023/07/12 03:54:50;;;;;;;9.00;6.80;;;16.90;99.90;;;;;;4994514;28;20209;-62
2023/07/12 03:57:17;;;;;;;10.07;6.80;;;16.90;99.90;;;;;;4991999;28;20281;-61
2023/07/12 03:59:44;;;;;;;10.13;6.50;;;16.90;99.90;;;;;;5001368;28;20200;-60
2023/07/12 04:02:11;;;;;;;9.07;6.03;;;17.00;99.90;;;;;;5000031;28;20241;-62
2023/07/12 04:04:38;;;;;;;8.03;6.47;;;17.00;99.90;;;;;;4995065;28;20761;-62
2023/07/12 04:07:05;;;;;;;7.37;5.37;;;16.90;99.90;;;;;;4997953;28;20819;-61
2023/07/12 04:09:32;;;;;;;8.50;5.37;;;16.80;99.90;;;;;;5000641;28;20517;-61
2023/07/12 04:11:58;;;;;;;8.90;5.73;;;16.90;99.90;;;;;;4998475;28;20198;-60
2023/07/12 04:14:26;;;;;;;8.63;5.20;;;16.80;99.90;;;;;;4997884;28;20220;-60
2023/07/12 04:16:53;;;;;;;10.30;5.63;;;16.90;99.90;;;;;;4995394;28;20202;-61
2023/07/12 04:19:19;;;;;;;9.70;6.07;;;17.00;99.90;;;;;;5000577;28;20200;-60
2023/07/12 04:21:46;;;;;;;7.73;5.90;;;16.80;99.90;;;;;;5000885;28;20210;-61
2023/07/12 04:24:14;;;;;;;14.40;6.20;;;16.90;99.90;;;;;;4996819;28;20242;-62
2023/07/12 04:26:41;;;;;;;10.93;5.27;;;17.00;99.90;;;;;;4999013;28;20206;-61
2023/07/12 04:29:07;;;;;;;9.20;5.27;;;16.90;99.90;;;;;;4994668;28;20254;-59
2023/07/12 04:31:34;;;;;;;9.43;5.03;;;17.00;99.90;;;;;;4992105;28;20199;-65
2023/07/12 04:34:01;;;;;;;6.73;4.67;;;16.90;99.90;;;;;;4993692;28;20310;-63
2023/07/12 04:36:29;;;;;;;8.20;5.13;;;17.10;99.90;;;;;;4992897;28;20211;-65
2023/07/12 04:38:55;;;;;;;12.27;4.87;;;16.90;99.90;;;;;;4997992;28;20199;-65
2023/07/12 04:41:22;;;;;;;6.30;3.97;;;16.90;99.90;;;;;;4991378;28;20213;-65
2023/07/12 04:43:50;;;;;;;7.43;4.23;;;17.00;99.90;;;;;;4996153;28;20598;-64
2023/07/12 04:46:17;;;;;;;9.63;4.00;;;17.00;99.90;;;;;;4998078;28;20607;-64
2023/07/12 04:48:43;;;;;;;10.33;4.63;;;17.00;99.90;;;;;;4999122;28;20211;-65
2023/07/12 04:51:10;;;;;;;10.90;4.60;;;17.00;99.90;;;;;;4995898;28;20203;-65
2023/07/12 04:53:38;;;;;;;10.63;5.07;;;17.00;99.90;;;;;;4996497;28;20739;-63
2023/07/12 04:56:04;;;;;;;10.50;4.03;;;17.00;99.90;;;;;;4996227;28;20203;-65
2023/07/12 04:58:31;;;;;;;8.40;3.83;;;17.10;99.90;;;;;;4998844;28;20208;-65
2023/07/12 05:00:59;;;;;;;9.10;4.13;;;17.20;99.90;;;;;;4997477;28;20242;-65
2023/07/12 05:03:27;;;;;;;6.60;3.83;;;17.10;99.90;;;;;;4996847;28;20269;-63
2023/07/12 05:05:57;;;;;;;8.37;4.20;;;17.10;99.90;;;;;;4995724;28;20649;-65
2023/07/12 05:08:25;;;;;;;7.53;3.57;;;17.30;99.90;;;;;;4999142;28;20238;-66
2023/07/12 05:11:01;;;;;;;8.87;3.53;;;17.30;99.90;;;;;;4996941;28;20258;-64
2023/07/12 05:13:28;;;;;;;6.47;3.43;;;17.30;99.90;;;;;;4995061;28;20200;-65
2023/07/12 05:15:55;;;;;;;9.53;3.70;;;17.10;99.90;;;;;;4998938;28;20207;-64
2023/07/12 05:18:22;;;;;;;5.03;3.33;;;17.10;99.90;;;;;;4996542;28;20206;-66
2023/07/12 05:20:52;;;;;;;7.97;3.23;;;17.00;99.90;;;;;;4992729;28;20680;-66
2023/07/12 05:23:22;;;;;;;7.47;3.53;;;17.20;99.90;;;;;;4993412;28;20194;-64
2023/07/12 05:25:51;;;;;;;5.80;3.10;;;17.20;99.90;;;;;;4999093;28;20236;-66
2023/07/12 05:28:19;;;;;;;4.97;3.33;;;17.20;99.90;;;;;;4993257;28;21596;-63
2023/07/12 05:30:46;;;;;;;7.60;3.93;;;17.40;99.90;;;;;;4995333;28;20661;-65
2023/07/12 05:33:13;;;;;;;3.53;2.87;;;17.40;99.90;;;;;;4992172;28;20217;-64
2023/07/12 05:35:40;;;;;;;8.23;3.37;;;17.80;99.90;;;;;;4990252;28;20675;-64
2023/07/12 05:38:07;;;;;;;6.43;3.60;;;17.70;99.90;;;;;;4993039;28;20205;-65
2023/07/12 05:40:36;;;;;;;4.77;3.30;;;17.70;99.90;;;;;;4988924;28;20243;-63
2023/07/12 05:43:03;;;;;;;7.70;3.70;;;17.60;99.90;;;;;;4991992;28;20198;-64
2023/07/12 05:45:30;;;;;;;6.33;3.23;;;17.50;99.90;;;;;;4995963;28;20228;-66
2023/07/12 05:47:56;;;;;;;9.70;4.40;;;17.50;99.90;;;;;;4988921;28;20201;-63
2023/07/12 05:50:24;;;;;;;6.83;3.50;;;17.50;99.90;;;;;;4638247;28;9999892;-63
2023/07/12 05:52:51;;;;;;;7.13;3.77;;;17.60;99.90;;;;;;4971468;28;20209;-63
2023/07/12 05:55:18;;;;;;;9.30;3.80;;;17.70;99.90;;;;;;4991914;28;20209;-63
2023/07/12 05:57:46;;;;;;;11.07;4.23;;;17.60;99.90;;;;;;4983845;28;20220;-62
2023/07/12 06:00:14;;;;;;;5.93;3.53;;;17.70;99.90;;;;;;4993634;28;20210;-62
2023/07/12 06:02:40;;;;;;;7.60;3.97;;;17.50;99.90;;;;;;4989751;28;20250;-64
2023/07/12 06:05:08;;;;;;;7.77;4.37;;;17.50;99.90;;;;;;5003039;28;20301;-63
2023/07/12 06:07:35;;;;;;;8.13;4.00;;;17.40;99.90;;;;;;5007617;28;20627;-61
2023/07/12 06:10:02;;;;;;;5.30;3.80;;;17.60;99.90;;;;;;4991690;28;20642;-61
2023/07/12 06:12:29;;;;;;;7.47;4.70;;;17.50;99.90;;;;;;4994447;28;20691;-61
2023/07/12 06:14:56;;;;;;;7.77;3.97;;;17.60;50.60;;;;;;4992783;28;20811;-60
2023/07/12 06:17:23;;;;;;;7.10;3.67;;;17.60;99.90;;;;;;4994306;28;20217;-60
2023/07/12 06:19:50;;;;;;;8.57;4.40;;;17.50;1.00;;;;;;4995006;28;20207;-61
2023/07/12 06:22:16;;;;;;;7.80;4.20;;;17.50;1.00;;;;;;4993406;28;20237;-62
2023/07/12 06:24:43;;;;;;;12.90;4.90;;;17.60;99.90;;;;;;4991433;28;20228;-61
2023/07/12 06:27:10;;;;;;;7.07;4.77;;;17.60;64.20;;;;;;4995505;28;20267;-60
2023/07/12 06:29:37;;;;;;;8.37;4.37;;;17.50;1.00;;;;;;4997192;28;20211;-61
2023/07/12 06:32:04;;;;;;;10.37;4.80;;;17.60;1.00;;;;;;4998520;28;20196;-60
2023/07/12 06:34:31;;;;;;;8.13;4.53;;;17.70;1.00;;;;;;4973612;28;20207;-61
2023/07/12 06:36:58;;;;;;;5.87;4.40;;;17.70;1.00;;;;;;4986986;28;20791;-61
2023/07/12 06:39:24;;;;;;;6.80;4.10;;;17.70;1.00;;;;;;4995633;28;20702;-63
2023/07/12 06:41:51;;;;;;;11.00;3.97;;;17.70;1.00;;;;;;4997886;28;20205;-61
2023/07/12 06:44:18;;;;;;;11.60;4.27;;;17.70;1.00;;;;;;4995983;28;20506;-61
2023/07/12 06:46:45;;;;;;;8.80;4.30;;;17.80;1.00;;;;;;4995897;28;20204;-61
2023/07/12 06:49:15;;;;;;;8.67;4.30;;;18.00;1.00;;;;;;4998060;28;20197;-62
2023/07/12 06:51:46;;;;;;;8.70;4.27;;;18.10;1.00;;;;;;4995618;28;20233;-67
2023/07/12 06:54:14;;;;;;;6.27;4.37;;;18.00;1.00;;;;;;4995276;28;20634;-65
2023/07/12 06:56:42;;;;;;;9.97;4.70;;;18.20;99.90;;;;;;4998542;28;22459;-65
2023/07/12 06:59:10;;;;;;;9.67;4.57;;;18.20;1.00;;;;;;4996386;28;20717;-65
2023/07/12 07:01:37;;;;;;;10.00;5.17;;;18.30;1.00;;;;;;5000042;28;20270;-66
2023/07/12 07:04:04;;;;;;;8.03;4.53;;;18.20;1.00;;;;;;5000104;28;20235;-66
2023/07/12 07:06:31;;;;;;;9.00;4.57;;;18.10;99.90;;;;;;4994643;28;20197;-66
2023/07/12 07:08:58;;;;;;;5.37;4.37;;;18.30;1.00;;;;;;4999875;28;20208;-65
2023/07/12 07:11:25;;;;;;;7.13;5.10;;;18.40;1.00;;;;;;4997338;28;20209;-65
2023/07/12 07:13:52;;;;;;;8.57;5.03;;;18.30;99.90;;;;;;4999077;28;20209;-65
2023/07/12 07:16:18;;;;;;;8.17;4.57;;;18.20;99.90;;;;;;4997233;28;22521;-64
2023/07/12 07:18:45;;;;;;;7.43;4.80;;;18.30;1.00;;;;;;5000456;28;20672;-66
2023/07/12 07:21:13;;;;;;;9.83;5.03;;;18.20;1.00;;;;;;5000621;28;20197;-66
2023/07/12 07:23:39;;;;;;;8.90;5.07;;;18.20;1.00;;;;;;4995827;28;20270;-66
2023/07/12 07:26:10;;;;;;;10.73;5.13;;;18.40;99.90;;;;;;5000526;28;20579;-65
2023/07/12 07:28:38;;;;;;;11.47;4.70;;;18.70;1.00;;;;;;4995033;28;20216;-64
2023/07/12 07:31:07;;;;;;;7.87;4.63;;;18.80;99.90;;;;;;4988772;28;20566;-62
2023/07/12 07:33:37;;;;;;;7.47;4.90;;;19.10;99.90;;;;;;4996302;28;20205;-64
2023/07/12 07:36:10;;;;;;;10.97;4.70;;;19.10;1.00;;;;;;4992439;28;20657;-63
2023/07/12 07:38:37;;;;;;;10.10;5.10;;;19.10;1.00;;;;;;4999352;28;20205;-63
2023/07/12 07:41:09;;;;;;;9.87;4.83;;;19.00;99.90;;;;;;4997824;28;20198;-64
2023/07/12 07:43:36;;;;;;;10.50;4.77;;;18.90;1.00;;;;;;4996815;28;20236;-63
2023/07/12 07:46:03;;;;;;;10.27;4.83;;;19.10;99.90;;;;;;4995227;28;20217;-64
2023/07/12 07:48:30;;;;;;;11.63;5.00;;;19.10;1.00;;;;;;4999099;28;20201;-64
2023/07/12 07:50:57;;;;;;;11.97;5.47;;;19.20;99.90;;;;;;4998713;28;20194;-65
2023/07/12 07:53:24;;;;;;;9.03;5.40;;;19.10;23.40;;;;;;4992146;28;20648;-63
2023/07/12 07:55:52;;;;;;;6.13;4.63;;;19.00;99.90;;;;;;4998142;28;20208;-62
2023/07/12 07:58:21;;;;;;;6.33;4.70;;;18.80;1.00;;;;;;4998641;28;20249;-63
2023/07/12 08:00:48;;;;;;;9.87;4.83;;;19.00;1.00;;;;;;4997894;28;20216;-66
2023/07/12 08:03:15;;;;;;;6.47;5.03;;;19.00;99.90;;;;;;4995131;28;20252;-64
2023/07/12 08:05:42;;;;;;;8.83;4.77;;;19.10;99.90;;;;;;4999218;28;20221;-65
2023/07/12 08:08:09;;;;;;;9.00;4.13;;;19.10;99.90;;;;;;4999263;28;20544;-66
2023/07/12 08:10:36;;;;;;;9.00;4.23;;;19.40;50.30;;;;;;4999765;28;20598;-66
2023/07/12 08:13:03;;;;;;;11.30;3.90;;;19.70;1.00;;;;;;4999166;28;20212;-63
2023/07/12 08:15:31;;;;;;;11.00;4.63;;;19.80;1.00;;;;;;4998735;28;20280;-64
2023/07/12 08:17:58;;;;;;;9.30;4.10;;;19.80;1.00;;;;;;4993860;28;20209;-65
2023/07/12 08:20:25;;;;;;;12.70;4.63;;;20.20;1.00;;;;;;4994132;28;20220;-66
2023/07/12 08:22:52;;;;;;;9.83;3.80;;;19.90;99.90;;;;;;4995428;28;20276;-64
2023/07/12 08:25:19;;;;;;;13.20;3.80;;;19.60;99.90;;;;;;4991344;28;20732;-65
2023/07/12 08:27:47;;;;;;;6.50;3.10;;;19.50;1.00;;;;;;4987988;28;20210;-65
2023/07/12 08:30:14;;;;;;;8.83;3.40;;;19.90;29.20;;;;;;4995624;28;20202;-64
2023/07/12 08:32:41;;;;;;;6.93;4.03;;;20.30;99.90;;;;;;5013398;28;20202;-65
2023/07/12 08:35:10;;;;;;;9.20;3.27;;;20.40;1.00;;;;;;4996765;28;20213;-65
2023/07/12 08:37:37;;;;;;;9.03;3.10;;;20.30;1.00;;;;;;4993810;28;20213;-65
2023/07/12 08:40:05;;;;;;;8.90;3.60;;;20.10;1.00;;;;;;4994713;28;20572;-65
2023/07/12 08:42:38;;;;;;;7.70;3.40;;;20.00;1.00;;;;;;4994148;28;20210;-65
2023/07/12 08:45:32;;;;;;;9.47;3.87;;;20.50;1.00;;;;;;4992079;28;22743;-63
2023/07/12 08:48:07;;;;;;;7.97;4.13;;;20.70;1.00;;;;;;5012079;28;20725;-65
2023/07/12 08:50:41;;;;;;;6.77;4.13;;;20.60;1.00;;;;;;4992164;28;20201;-64
2023/07/12 08:53:11;;;;;;;8.93;4.23;;;20.70;1.00;;;;;;4991205;28;20201;-65
2023/07/12 08:55:38;;;;;;;10.13;4.87;;;20.50;1.00;;;;;;4985403;28;20209;-65
2023/07/12 08:58:50;;;;;;;7.10;4.17;;;20.90;99.90;;;;;;4994218;28;20206;-66
2023/07/12 09:01:36;;;;;;;7.23;3.80;;;20.70;1.00;;;;;;4981745;28;20242;-65
2023/07/12 09:04:22;;;;;;;6.60;3.43;;;20.80;99.90;;;;;;4990806;28;20339;-65
2023/07/12 09:06:53;;;;;;;8.03;3.53;;;20.70;99.90;;;;;;4993037;28;20202;-65
2023/07/12 09:09:20;;;;;;;4.60;3.10;;;20.90;99.90;;;;;;4997611;28;20212;-62
2023/07/12 09:11:47;;;;;;;7.03;3.40;;;21.10;99.90;;;;;;4994353;28;20211;-65
2023/07/12 09:14:20;;;;;;;8.90;4.03;;;21.30;99.90;;;;;;4989934;28;20198;-66
2023/07/12 09:16:49;;;;;;;6.13;3.10;;;21.40;99.90;;;;;;4987280;28;20229;-63
2023/07/12 09:19:20;;;;;;;8.53;3.80;;;21.70;99.90;;;;;;4990033;28;20920;-64
2023/07/12 09:21:57;;;;;;;10.40;3.60;;;21.60;93.80;;;;;;5003162;28;20197;-66
2023/07/12 09:24:27;;;;;;;6.67;3.90;;;21.40;1.00;;;;;;4994189;28;20205;-66
2023/07/12 09:27:05;;;;;;;7.67;3.53;;;21.20;91.00;;;;;;5013557;28;20569;-64
2023/07/12 09:29:35;;;;;;;9.03;3.90;;;21.10;99.90;;;;;;4989778;28;20205;-65
2023/07/12 09:32:28;;;;;;;4.33;3.30;;;21.00;99.90;;;;;;4991251;28;20579;-63
2023/07/12 09:34:55;;;;;;;6.93;3.30;;;21.30;99.90;;;;;;4997445;28;20218;-65
2023/07/12 09:37:22;;;;;;;6.17;3.30;;;21.70;46.80;;;;;;4998238;28;20218;-66
2023/07/12 09:40:16;;;;;;;7.57;3.20;;;21.80;1.00;;;;;;4998054;28;20312;-64
2023/07/12 09:42:47;;;;;;;6.93;3.23;;;22.20;1.00;;;;;;5011969;28;20210;-66
2023/07/12 09:45:14;;;;;;;6.80;3.43;;;21.90;1.00;;;;;;4996417;28;20221;-65
2023/07/12 09:48:00;;;;;;;5.87;3.30;;;22.00;1.00;;;;;;4999104;28;20333;-65
2023/07/12 09:50:37;;;;;;;6.63;3.47;;;22.20;1.00;;;;;;4997183;28;20729;-65
2023/07/12 09:53:17;;;;;;;9.93;3.30;;;21.90;1.00;;;;;;4991049;28;20287;-64
2023/07/12 09:55:57;;;;;;;5.07;3.20;;;22.00;1.00;;;;;;4998943;28;20243;-65
2023/07/12 09:58:33;;;;;;;7.80;3.03;;;22.00;1.00;;;;;;5012679;28;20213;-64
2023/07/12 10:01:05;;;;;;;6.83;3.20;;;22.40;1.00;;;;;;4995979;28;20212;-65
2023/07/12 10:03:41;;;;;;;6.93;4.20;;;22.10;1.00;;;;;;4994554;28;20705;-65
2023/07/12 10:06:29;;;;;;;5.73;2.87;;;22.20;1.00;;;;;;4998124;28;20227;-64
2023/07/12 10:09:20;;;;;;;6.37;2.93;;;22.70;1.00;;;;;;4991538;28;20206;-65
2023/07/12 10:11:57;;;;;;;6.20;2.87;;;22.70;1.00;;;;;;4996161;28;22833;-65
2023/07/12 10:14:33;;;;;;;6.43;4.17;;;22.40;1.00;;;;;;4995704;28;20198;-64
2023/07/12 10:17:01;;;;;;;4.40;3.27;;;22.90;1.00;;;;;;4994133;28;20367;-63
2023/07/12 10:19:37;;;;;;;8.70;4.37;;;22.90;1.00;;;;;;5000044;28;20665;-60
2023/07/12 10:22:16;;;;;;;6.50;3.20;;;22.90;1.00;;;;;;4995943;28;20193;-61
2023/07/12 10:24:48;;;;;;;7.27;3.77;;;23.00;1.00;;;;;;4993389;28;20655;-61
2023/07/12 10:27:23;;;;;;;6.70;3.57;;;23.00;1.00;;;;;;4992103;28;20249;-61
2023/07/12 10:30:00;;;;;;;3.07;2.70;;;22.70;1.00;;;;;;4989936;28;20197;-60
2023/07/12 10:32:35;;;;;;;7.10;3.30;;;22.60;1.00;;;;;;4993615;28;20223;-63
2023/07/12 10:35:34;;;;;;;5.83;2.90;;;22.70;1.00;;;;;;5011335;28;20730;-61
2023/07/12 10:38:25;;;;;;;6.33;2.80;;;22.90;1.00;;;;;;5001025;28;20252;-61
2023/07/12 10:41:08;;;;;;;9.90;3.23;;;22.60;1.00;;;;;;5005305;28;20213;-62
2023/07/12 10:43:45;;;;;;;5.13;3.40;;;22.70;1.00;;;;;;4994060;28;20208;-61
2023/07/12 10:46:24;;;;;;;7.27;3.30;;;22.60;1.00;;;;;;4996770;28;20224;-60
2023/07/12 10:48:54;;;;;;;6.80;3.40;;;22.50;1.00;;;;;;4998346;28;20207;-61
2023/07/12 10:51:27;;;;;;;8.03;3.13;;;22.30;1.00;;;;;;4998425;28;20538;-61
2023/07/12 10:53:55;;;;;;;8.20;3.10;;;22.00;1.00;;;;;;4998057;28;20205;-61
2023/07/12 10:56:52;;;;;;;7.03;3.17;;;21.60;1.00;;;;;;4991445;28;20209;-61
2023/07/12 10:59:31;;;;;;;8.70;2.47;;;21.80;1.00;;;;;;4992719;28;20300;-62
2023/07/12 11:02:04;;;;;;;5.00;2.70;;;21.70;1.00;;;;;;4997857;28;20237;-61
2023/07/12 11:04:35;;;;;;;6.47;2.63;;;21.70;1.00;;;;;;4993630;28;20233;-62
2023/07/12 11:07:25;;;;;;;6.80;3.00;;;21.60;1.00;;;;;;4995521;28;20221;-61
2023/07/12 11:09:54;;;;;;;6.90;2.50;;;21.50;1.00;;;;;;4995095;28;20575;-61
2023/07/12 11:12:27;;;;;;;5.73;3.00;;;21.40;1.00;;;;;;5000268;28;20295;-62
2023/07/12 11:15:12;;;;;;;5.90;2.90;;;21.50;1.00;;;;;;5000728;28;20728;-63
2023/07/12 11:18:09;;;;;;;5.67;3.00;;;21.50;1.00;;;;;;4997467;28;20580;-62
2023/07/12 11:21:07;;;;;;;6.87;2.73;;;21.30;1.00;;;;;;4987472;28;20590;-66
2023/07/12 11:23:43;;;;;;;10.90;2.30;;;21.30;1.00;;;;;;5000316;28;20202;-62
2023/07/12 11:26:29;;;;;;;5.13;2.20;;;21.30;1.00;;;;;;4998071;28;20696;-61
2023/07/12 11:29:16;;;;;;;4.73;2.10;;;21.10;1.00;;;;;;4990395;28;20688;-62
2023/07/12 11:31:49;;;;;;;7.60;2.30;;;21.00;1.00;;;;;;4993007;28;20235;-59
2023/07/12 11:34:19;;;;;;;5.50;2.40;;;20.90;1.00;;;;;;5000076;28;20280;-60
2023/07/12 11:36:54;;;;;;;3.70;2.30;;;20.80;1.00;;;;;;4995746;28;20573;-60
2023/07/12 11:39:24;;;;;;;4.70;2.40;;;21.30;1.00;;;;;;4990488;28;20244;-60
2023/07/12 11:42:20;;;;;;;7.37;2.23;;;22.20;1.00;;;;;;4990370;28;20209;-62
2023/07/12 11:45:06;;;;;;;6.67;2.33;;;22.60;1.00;;;;;;4993919;28;20579;-62
2023/07/12 11:47:34;;;;;;;5.80;2.87;;;23.10;1.00;;;;;;4993865;28;20212;-61
2023/07/12 11:50:01;;;;;;;5.97;2.40;;;23.40;1.00;;;;;;4998219;28;20308;-60
2023/07/12 11:52:28;;;;;;;6.80;2.90;;;23.30;1.00;;;;;;4996355;28;20246;-62
2023/07/12 11:54:55;;;;;;;7.10;3.20;;;22.90;1.00;;;;;;4998722;28;20213;-59
2023/07/12 11:57:22;;;;;;;5.53;2.53;;;22.70;1.00;;;;;;4992621;28;20846;-61
2023/07/12 11:59:50;;;;;;;3.37;2.30;;;23.10;1.00;;;;;;4985506;28;20217;-61
2023/07/12 12:02:20;;;;;;;3.73;2.20;;;23.30;1.00;;;;;;5007811;28;20234;-60
2023/07/12 12:04:49;;;;;;;5.60;2.27;;;22.90;1.00;;;;;;4994587;28;20245;-62
2023/07/12 12:07:20;;;;;;;5.17;2.63;;;23.30;1.00;;;;;;4993314;28;20312;-63
2023/07/12 12:09:48;;;;;;;5.40;1.87;;;23.60;1.00;;;;;;4995551;28;20299;-60
2023/07/12 12:12:20;;;;;;;3.07;1.63;;;23.60;1.00;;;;;;4989666;28;20201;-59
2023/07/12 12:14:50;;;;;;;3.57;1.70;;;23.90;1.00;;;;;;4989688;28;21033;-60
2023/07/12 12:17:24;;;;;;;3.90;2.17;;;24.20;1.00;;;;;;5001127;28;20211;-64
2023/07/12 12:20:21;;;;;;;5.63;2.10;;;24.00;1.00;;;;;;4991989;28;20216;-61
2023/07/12 12:22:53;;;;;;;3.70;1.40;;;24.10;1.00;;;;;;4992732;28;20352;-61
2023/07/12 12:25:23;;;;;;;3.23;1.20;;;24.50;1.00;;;;;;4994232;28;20300;-61
2023/07/12 12:27:51;;;;;;;6.00;1.60;;;24.80;1.00;;;;;;4991749;28;20206;-63
2023/07/12 12:30:19;;;;;;;5.73;1.70;;;24.70;99.90;;;;;;4993877;28;20247;-59
2023/07/12 12:33:06;;;;;;;6.73;1.50;;;24.70;1.00;;;;;;4996777;28;20632;-60
2023/07/12 12:35:52;;;;;;;3.97;2.00;;;24.10;99.90;;;;;;4988273;28;20315;-60
2023/07/12 12:38:28;;;;;;;6.13;1.40;;;23.90;1.00;;;;;;4987389;28;20203;-62
2023/07/12 12:41:01;;;;;;;4.47;1.60;;;23.10;1.00;;;;;;5005939;28;20211;-64
2023/07/12 12:43:28;;;;;;;3.13;1.20;;;22.90;1.00;;;;;;4991933;28;20210;-64
2023/07/12 12:45:55;;;;;;;3.37;1.30;;;22.70;1.00;;;;;;4994629;28;20225;-64
2023/07/12 12:48:32;;;;;;;3.33;1.20;;;22.60;1.00;;;;;;4996009;28;20230;-65
2023/07/12 12:51:02;;;;;;;2.93;1.30;;;22.60;1.00;;;;;;4994990;28;20213;-65
2023/07/12 12:53:49;;;;;;;2.23;1.17;;;22.60;1.00;;;;;;4988647;28;20208;-64
2023/07/12 12:56:22;;;;;;;3.97;1.90;;;22.50;1.00;;;;;;4983441;28;20213;-64
2023/07/12 12:58:51;;;;;;;5.27;1.20;;;22.80;1.00;;;;;;4993489;28;20813;-64
2023/07/12 13:01:21;;;;;;;4.57;1.23;;;23.40;1.00;;;;;;4990550;28;20212;-64
2023/07/12 13:03:54;;;;;;;3.13;1.20;;;23.60;1.00;;;;;;4992188;28;20240;-65
2023/07/12 13:06:27;;;;;;;3.17;1.00;;;23.50;1.00;;;;;;4994614;28;20682;-64
2023/07/12 13:08:55;;;;;;;1.50;0.93;;;23.60;1.00;;;;;;4996349;28;20202;-64